Startpagina
METAR-TAF:

METAR-TAF

Vliegvelden :

Cannes, Frankrijk

breedte: 43-33N, lengte: 006-57E, hoogte: 3 m

Actueel weer

Dit bericht is 48 minuten geleden gemaakt, om 02:30 UTC
Wind 4 kt uit het noorden, variërend tussen het noordnoordwesten en het noordoosten
Temperatuur 8°C
Vochtigheid 81%
Druk 1025 hPa
Zicht 10 km of meer
Gebroken wolken op 5600 ft
Gebroken wolken op 14000 ft

METAR: LFMD 240230Z AUTO 01004KT 330V050 9999 BKN056 BKN140 08/05 Q1025 NOSIG

Tijdstip: 04:18 (03:18 UTC)

Verwachting

Dit bericht is 1 uur en het 18 minuten geleden gemaakt, om 02:00 UTC
Verwachting geldig van 24 om 03 UTC tot 25 om 03 UTC
Wind 4 kt uit het noordnoordoosten
Zicht 10 km of meer
Gebroken wolken op 8000 ft
Tijdelijke
van 24 om 08 UTC tot 25 om 03 UTC
Wind 15 kt uit het oostnoordoosten met uitschieters tot 30 kt
Zicht: 3000 m
Gebroken wolken op 1400 ft
regen

TAF: LFMD 240200Z 2403/2503 02004KT 9999 BKN080 TEMPO 2408/2503 06015G30KT 3000 RA BKN014

Waarnemingen en weersverwachtingen van meer dan 4000 vliegvelden (METAR en TAF).

De beschikbare stations zijn de gele en rode punten op de kaart.

Ga met uw muis naar het station om de naam te zien.

Klik dan om waarnemingen en weersverwachtingen te zien.

kaart wijzigen: klik op de groene knoppen met een zwart kruis om in te zoomen, op de groene knop met een streepje om uit te zoomen of op de groene pijlen voor aangrenzende kaarten.


METAR-TAF: